createdAt,value
2023-06-19T00:01:45.427Z,1005.33
2023-06-19T00:02:45.787Z,1005.41
2023-06-19T00:03:45.478Z,1005.39
2023-06-19T00:04:45.477Z,1005.39
2023-06-19T00:05:45.609Z,1005.35
2023-06-19T00:06:45.543Z,1005.39
2023-06-19T00:07:45.628Z,1005.40
2023-06-19T00:08:45.616Z,1005.40
2023-06-19T00:09:45.984Z,1005.37
2023-06-19T00:10:45.676Z,1005.38
2023-06-19T00:11:45.720Z,1005.39
2023-06-19T00:12:45.798Z,1005.40
2023-06-19T00:13:45.827Z,1005.36
2023-06-19T00:14:45.802Z,1005.42
2023-06-19T00:15:45.846Z,1005.41
2023-06-19T00:16:46.335Z,1005.39
2023-06-19T00:17:45.920Z,1005.40
2023-06-19T00:18:45.934Z,1005.34
2023-06-19T00:19:45.961Z,1005.37
2023-06-19T00:20:45.999Z,1005.38
2023-06-19T00:21:46.023Z,1005.38
2023-06-19T00:22:46.069Z,1005.41
2023-06-19T00:23:46.092Z,1005.43
2023-06-19T00:24:46.119Z,1005.45
2023-06-19T00:25:46.170Z,1005.47
2023-06-19T00:26:46.210Z,1005.45
2023-06-19T00:27:46.556Z,1005.46
2023-06-19T00:28:46.263Z,1005.44
2023-06-19T00:29:46.602Z,1005.45
2023-06-19T00:30:46.353Z,1005.49
2023-06-19T00:32:46.421Z,1005.44
2023-06-19T00:33:46.436Z,1005.41
2023-06-19T00:34:46.478Z,1005.47
2023-06-19T00:35:46.488Z,1005.48
2023-06-19T00:36:46.529Z,1005.47
2023-06-19T00:37:46.569Z,1005.47
2023-06-19T00:38:46.776Z,1005.47
2023-06-19T00:39:46.643Z,1005.47
2023-06-19T00:40:46.972Z,1005.49
2023-06-19T00:41:46.970Z,1005.51
2023-06-19T00:42:46.700Z,1005.51
2023-06-19T00:44:46.766Z,1005.57
2023-06-19T00:45:46.861Z,1005.55
2023-06-19T00:46:46.871Z,1005.56
2023-06-19T00:47:47.296Z,1005.58
2023-06-19T00:48:46.913Z,1005.58
2023-06-19T00:49:46.929Z,1005.63
2023-06-19T00:50:47.016Z,1005.65
2023-06-19T00:51:46.994Z,1005.69
2023-06-19T00:52:47.436Z,1005.71
2023-06-19T00:53:47.062Z,1005.71
2023-06-19T00:54:47.730Z,1005.70
2023-06-19T00:55:47.228Z,1005.72
2023-06-19T00:56:47.212Z,1005.72
2023-06-19T00:57:47.257Z,1005.67
2023-06-19T00:58:47.602Z,1005.67
2023-06-19T00:59:47.292Z,1005.67
2023-06-19T01:00:56.015Z,1005.69
2023-06-19T01:01:47.799Z,1005.72
2023-06-19T01:02:47.879Z,1005.73
2023-06-19T01:03:47.461Z,1005.70
2023-06-19T01:04:47.443Z,1005.71
2023-06-19T01:05:47.454Z,1005.71
2023-06-19T01:06:47.531Z,1005.68
2023-06-19T01:07:47.501Z,1005.69
2023-06-19T01:08:47.739Z,1005.75
2023-06-19T01:09:47.582Z,1005.77
2023-06-19T01:10:47.624Z,1005.80
2023-06-19T01:11:47.640Z,1005.77
2023-06-19T01:12:47.668Z,1005.75
2023-06-19T01:13:47.707Z,1005.75
2023-06-19T01:14:48.075Z,1005.75
2023-06-19T01:15:47.797Z,1005.73
2023-06-19T01:16:47.824Z,1005.70
2023-06-19T01:17:47.871Z,1005.72
2023-06-19T01:18:47.858Z,1005.72
2023-06-19T01:19:47.888Z,1005.69
2023-06-19T01:20:47.964Z,1005.72
2023-06-19T01:21:48.257Z,1005.69
2023-06-19T01:22:48.043Z,1005.66
2023-06-19T01:23:48.038Z,1005.62
2023-06-19T01:24:48.048Z,1005.67
2023-06-19T01:25:48.113Z,1005.59
2023-06-19T01:26:48.114Z,1005.62
2023-06-19T01:27:48.152Z,1005.62
2023-06-19T01:28:48.484Z,1005.65
2023-06-19T01:29:48.413Z,1005.64
2023-06-19T01:30:48.243Z,1005.62
2023-06-19T01:31:48.286Z,1005.66
2023-06-19T01:32:48.348Z,1005.66
2023-06-19T01:33:48.362Z,1005.66
2023-06-19T01:34:48.369Z,1005.65
2023-06-19T01:35:48.404Z,1005.66
2023-06-19T01:36:48.433Z,1005.61
2023-06-19T01:37:48.507Z,1005.61
2023-06-19T01:38:48.498Z,1005.57
2023-06-19T01:39:48.526Z,1005.59
2023-06-19T01:40:48.559Z,1005.58
2023-06-19T01:41:48.901Z,1005.59
2023-06-19T01:42:48.622Z,1005.62
2023-06-19T01:43:48.667Z,1005.65
2023-06-19T01:44:48.702Z,1005.68
2023-06-19T01:45:48.781Z,1005.63
2023-06-19T01:46:48.881Z,1005.65
2023-06-19T01:47:49.118Z,1005.64
2023-06-19T01:48:48.815Z,1005.64
2023-06-19T01:49:48.885Z,1005.65
2023-06-19T01:50:48.890Z,1005.68
2023-06-19T01:51:48.940Z,1005.73
2023-06-19T01:52:48.953Z,1005.73
2023-06-19T01:53:49.274Z,1005.77
2023-06-19T01:54:49.050Z,1005.81
2023-06-19T01:55:49.045Z,1005.84
2023-06-19T01:56:49.281Z,1005.82
2023-06-19T01:57:49.096Z,1005.83
2023-06-19T01:58:49.139Z,1005.86
2023-06-19T01:59:49.169Z,1005.83
2023-06-19T02:00:49.211Z,1005.83
2023-06-19T02:01:49.229Z,1005.84
2023-06-19T02:02:49.314Z,1005.86
2023-06-19T02:03:49.371Z,1005.81
2023-06-19T02:04:49.328Z,1005.88
2023-06-19T02:05:49.627Z,1005.89
2023-06-19T02:07:49.831Z,1005.91
2023-06-19T02:09:49.487Z,1005.92
2023-06-19T02:10:49.581Z,1005.95
2023-06-19T02:11:49.591Z,1005.98
2023-06-19T02:12:49.823Z,1005.97
2023-06-19T02:13:49.910Z,1006.00
2023-06-19T02:14:49.787Z,1006.04
2023-06-19T02:15:49.783Z,1006.06
2023-06-19T02:16:49.720Z,1006.03
2023-06-19T02:17:49.757Z,1006.09
2023-06-19T02:18:49.768Z,1006.09
2023-06-19T02:19:49.806Z,1006.14
2023-06-19T02:20:50.135Z,1006.16
2023-06-19T02:21:49.897Z,1006.14
2023-06-19T02:22:49.900Z,1006.20
2023-06-19T02:23:49.932Z,1006.24
2023-06-19T02:24:50.169Z,1006.27
2023-06-19T02:25:50.019Z,1006.26
2023-06-19T02:26:50.033Z,1006.25
2023-06-19T02:27:50.363Z,1006.29
2023-06-19T02:28:50.117Z,1006.24
2023-06-19T02:29:50.157Z,1006.30
2023-06-19T02:30:50.149Z,1006.30
2023-06-19T02:31:50.182Z,1006.31
2023-06-19T02:32:50.262Z,1006.35
2023-06-19T02:33:50.253Z,1006.28
2023-06-19T02:34:50.580Z,1006.30
2023-06-19T02:35:50.311Z,1006.34
2023-06-19T02:36:50.374Z,1006.31
2023-06-19T02:37:50.394Z,1006.38
2023-06-19T02:38:50.406Z,1006.36
2023-06-19T02:39:50.470Z,1006.35
2023-06-19T02:40:50.474Z,1006.38
2023-06-19T02:41:50.814Z,1006.42
2023-06-19T02:42:50.541Z,1006.36
2023-06-19T02:44:50.593Z,1006.39
2023-06-19T02:46:50.705Z,1006.38
2023-06-19T02:47:50.721Z,1006.38
2023-06-19T02:48:51.025Z,1006.34
2023-06-19T02:49:50.761Z,1006.32
2023-06-19T02:50:50.793Z,1006.39
2023-06-19T02:51:51.154Z,1006.43
2023-06-19T02:52:50.870Z,1006.43
2023-06-19T02:53:50.929Z,1006.49
2023-06-19T02:54:50.918Z,1006.47
2023-06-19T02:55:50.951Z,1006.52
2023-06-19T02:56:51.315Z,1006.55
2023-06-19T02:57:51.047Z,1006.56
2023-06-19T02:58:51.053Z,1006.59
2023-06-19T02:59:51.149Z,1006.59
2023-06-19T03:00:51.163Z,1006.60
2023-06-19T03:01:51.443Z,1006.63
2023-06-19T03:02:51.233Z,1006.59
2023-06-19T03:03:51.262Z,1006.61
2023-06-19T03:04:51.260Z,1006.63
2023-06-19T03:05:51.304Z,1006.65
2023-06-19T03:06:51.299Z,1006.62
2023-06-19T03:07:51.574Z,1006.65
2023-06-19T03:08:51.360Z,1006.65
2023-06-19T03:09:51.414Z,1006.73
2023-06-19T03:10:51.418Z,1006.74
2023-06-19T03:11:51.457Z,1006.71
2023-06-19T03:12:51.482Z,1006.77
2023-06-19T03:13:52.164Z,1006.76
2023-06-19T03:14:51.546Z,1006.74
2023-06-19T03:15:51.574Z,1006.76
2023-06-19T03:17:51.676Z,1006.81
2023-06-19T03:18:53.316Z,1006.81
2023-06-19T03:20:51.744Z,1006.86
2023-06-19T03:21:52.017Z,1006.87
2023-06-19T03:22:51.805Z,1006.90
2023-06-19T03:23:51.908Z,1006.95
2023-06-19T03:24:51.882Z,1006.99
2023-06-19T03:25:52.235Z,1007.02
2023-06-19T03:26:51.937Z,1007.02
2023-06-19T03:27:52.264Z,1007.09
2023-06-19T03:28:51.998Z,1007.16
2023-06-19T03:29:52.028Z,1007.17
2023-06-19T03:30:52.093Z,1007.20
2023-06-19T03:31:52.428Z,1007.15
2023-06-19T03:32:52.170Z,1007.13
2023-06-19T03:33:52.225Z,1007.18
2023-06-19T03:34:52.434Z,1007.20
2023-06-19T03:35:52.213Z,1007.30
2023-06-19T03:36:52.249Z,1007.24
2023-06-19T03:37:52.320Z,1007.28
2023-06-19T03:38:52.310Z,1007.24
2023-06-19T03:39:52.342Z,1007.27
2023-06-19T03:40:52.370Z,1007.28
2023-06-19T03:41:52.761Z,1007.32
2023-06-19T03:42:52.447Z,1007.41
2023-06-19T03:43:52.802Z,1007.41
2023-06-19T03:44:52.500Z,1007.39
2023-06-19T03:45:52.628Z,1007.41
2023-06-19T03:46:52.622Z,1007.40
2023-06-19T03:47:52.749Z,1007.49
2023-06-19T03:48:52.931Z,1007.42
2023-06-19T03:49:54.665Z,1007.41
2023-06-19T03:50:52.705Z,1007.39
2023-06-19T03:51:52.720Z,1007.37
2023-06-19T03:52:52.746Z,1007.38
2023-06-19T03:53:52.777Z,1007.41
2023-06-19T03:54:52.818Z,1007.46
2023-06-19T03:55:56.316Z,1007.46
2023-06-19T03:57:52.928Z,1007.58
2023-06-19T03:58:52.933Z,1007.62
2023-06-19T03:59:52.967Z,1007.64
2023-06-19T04:00:53.015Z,1007.68
2023-06-19T04:01:53.073Z,1007.69
2023-06-19T04:02:53.459Z,1007.72
2023-06-19T04:03:53.158Z,1007.75
2023-06-19T04:04:53.168Z,1007.81
2023-06-19T04:05:53.157Z,1007.85
2023-06-19T04:06:53.524Z,1007.83
2023-06-19T04:07:53.260Z,1007.87
2023-06-19T04:08:53.281Z,1007.86
2023-06-19T04:09:53.313Z,1007.83
2023-06-19T04:10:53.357Z,1007.88
2023-06-19T04:11:53.355Z,1007.91
2023-06-19T04:12:53.372Z,1007.89
2023-06-19T04:13:53.427Z,1007.89
2023-06-19T04:14:53.477Z,1007.88
2023-06-19T04:15:53.852Z,1007.95
2023-06-19T04:16:53.594Z,1007.92
2023-06-19T04:17:53.590Z,1008.00
2023-06-19T04:18:53.897Z,1008.00
2023-06-19T04:19:53.628Z,1008.05
2023-06-19T04:20:53.630Z,1008.04
2023-06-19T04:21:53.694Z,1008.01
2023-06-19T04:22:54.027Z,1008.05
2023-06-19T04:23:53.812Z,1008.09
2023-06-19T04:24:53.758Z,1008.12
2023-06-19T04:25:53.811Z,1008.09
2023-06-19T04:26:54.190Z,1008.08
2023-06-19T04:27:53.849Z,1008.05
2023-06-19T04:28:53.869Z,1008.08
2023-06-19T04:29:53.928Z,1008.06
2023-06-19T04:30:53.933Z,1008.04
2023-06-19T04:32:54.096Z,1008.12
2023-06-19T04:33:54.053Z,1008.16
2023-06-19T04:34:54.053Z,1008.18
2023-06-19T04:35:54.396Z,1008.21
2023-06-19T04:37:54.151Z,1008.21
2023-06-19T04:38:54.219Z,1008.19
2023-06-19T04:39:54.548Z,1008.25
2023-06-19T04:41:54.323Z,1008.20
2023-06-19T04:42:54.337Z,1008.23
2023-06-19T04:43:54.332Z,1008.27
2023-06-19T04:44:54.394Z,1008.23
2023-06-19T04:45:54.427Z,1008.23
2023-06-19T04:46:54.426Z,1008.25
2023-06-19T04:47:54.788Z,1008.24
2023-06-19T04:48:54.485Z,1008.21
2023-06-19T04:49:54.525Z,1008.23
2023-06-19T04:50:54.761Z,1008.25
2023-06-19T04:51:54.615Z,1008.22
2023-06-19T04:52:54.712Z,1008.22
2023-06-19T04:53:54.986Z,1008.25
2023-06-19T04:54:54.974Z,1008.26
2023-06-19T04:55:54.707Z,1008.22
2023-06-19T04:56:54.771Z,1008.24
2023-06-19T04:57:55.106Z,1008.18
2023-06-19T04:58:54.802Z,1008.17
2023-06-19T04:59:54.840Z,1008.23
2023-06-19T05:00:54.859Z,1008.22
2023-06-19T05:01:55.032Z,1008.21
2023-06-19T05:03:54.995Z,1008.27
2023-06-19T05:04:55.046Z,1008.19
2023-06-19T05:05:55.013Z,1008.22
2023-06-19T05:06:55.051Z,1008.26
2023-06-19T05:07:55.338Z,1008.27
2023-06-19T05:08:55.114Z,1008.23
2023-06-19T05:09:55.138Z,1008.30
2023-06-19T05:10:55.178Z,1008.28
2023-06-19T05:11:55.206Z,1008.32
2023-06-19T05:12:55.236Z,1008.38
2023-06-19T05:13:55.276Z,1008.32
2023-06-19T05:15:55.693Z,1008.47
2023-06-19T05:16:55.392Z,1008.39
2023-06-19T14:28:16.375Z,1009.22
2023-06-19T14:29:16.437Z,1009.24
2023-06-19T14:30:16.494Z,1009.23
2023-06-19T14:31:16.452Z,1009.29
2023-06-19T14:32:16.491Z,1009.35
2023-06-19T14:33:16.538Z,1009.35
2023-06-19T14:34:16.564Z,1009.41
2023-06-19T14:35:16.596Z,1009.52
2023-06-19T14:36:16.634Z,1009.64
2023-06-19T14:37:16.655Z,1009.83
2023-06-19T14:38:16.758Z,1009.92
2023-06-19T14:39:16.735Z,1009.92
2023-06-19T14:40:17.081Z,1009.89
2023-06-19T14:41:17.104Z,1010.02
2023-06-19T14:42:16.841Z,1010.04
2023-06-19T14:43:16.887Z,1010.09
2023-06-19T14:44:16.984Z,1010.07
2023-06-19T14:45:16.940Z,1010.04
2023-06-19T14:46:33.424Z,1010.07
2023-06-19T14:47:17.366Z,1010.03
2023-06-19T14:48:17.129Z,1010.07
2023-06-19T14:49:17.092Z,1010.35
2023-06-19T14:50:17.117Z,1010.48
2023-06-19T14:51:17.165Z,1010.44
2023-06-19T14:52:17.190Z,1010.36
2023-06-19T14:53:17.231Z,1010.16
2023-06-19T14:54:17.267Z,1010.05
2023-06-19T14:55:17.303Z,1010.02
2023-06-19T14:56:17.372Z,1009.96
2023-06-19T14:57:17.380Z,1009.99
2023-06-19T14:58:17.425Z,1009.87
2023-06-19T14:59:17.456Z,1009.83
2023-06-19T15:00:17.505Z,1009.71
2023-06-19T15:01:17.549Z,1009.67
2023-06-19T15:02:17.573Z,1009.59
2023-06-19T15:03:17.667Z,1009.58
2023-06-19T15:04:17.950Z,1009.53
2023-06-19T15:05:17.686Z,1009.55
2023-06-19T15:06:17.952Z,1009.46
2023-06-19T15:07:17.742Z,1009.42
2023-06-19T15:08:17.972Z,1009.40
2023-06-19T15:10:17.855Z,1009.37
2023-06-19T15:11:17.893Z,1009.36
2023-06-19T15:12:17.927Z,1009.34
2023-06-19T15:13:17.966Z,1009.25
2023-06-19T15:14:17.999Z,1009.21
2023-06-19T15:15:18.052Z,1009.21
2023-06-19T15:16:18.097Z,1009.20
2023-06-19T15:17:18.128Z,1009.19
2023-06-19T15:18:18.286Z,1009.18
2023-06-19T15:19:18.214Z,1009.15
2023-06-19T15:21:18.262Z,1009.13
2023-06-19T15:22:18.292Z,1009.11
2023-06-19T15:23:18.336Z,1009.15
2023-06-19T15:24:18.403Z,1009.10
2023-06-19T15:25:18.414Z,1009.05
2023-06-19T15:26:18.448Z,1009.00
2023-06-19T15:27:18.480Z,1008.95
2023-06-19T15:28:18.523Z,1009.05
2023-06-19T15:29:18.558Z,1009.01
2023-06-19T15:31:18.637Z,1008.98
2023-06-19T15:32:18.718Z,1008.95
2023-06-19T15:33:19.314Z,1008.91
2023-06-19T15:34:18.752Z,1008.78
2023-06-19T15:35:18.784Z,1008.88
2023-06-19T15:36:18.825Z,1008.96
2023-06-19T15:37:18.859Z,1008.93
2023-06-19T15:38:19.511Z,1008.91
2023-06-19T15:39:18.938Z,1008.91
2023-06-19T15:40:18.973Z,1009.03
2023-06-19T15:42:19.057Z,1009.14
2023-06-19T15:43:19.096Z,1009.16
2023-06-19T15:44:19.129Z,1009.20
2023-06-19T15:45:19.174Z,1009.19
2023-06-19T15:46:19.225Z,1009.18
2023-06-19T15:47:19.254Z,1009.21
2023-06-19T15:48:19.301Z,1009.23
2023-06-19T15:49:19.334Z,1009.19
2023-06-19T15:50:19.360Z,1009.17
2023-06-19T15:51:19.713Z,1009.24
2023-06-19T15:52:19.438Z,1009.17
2023-06-19T15:53:19.473Z,1009.31
2023-06-19T15:54:19.530Z,1009.37
2023-06-19T15:55:19.558Z,1009.45
2023-06-19T15:56:19.595Z,1009.51
2023-06-19T15:57:19.627Z,1009.50
2023-06-19T15:59:19.709Z,1009.50
2023-06-19T16:00:19.754Z,1009.52
2023-06-19T16:01:19.943Z,1009.57
2023-06-19T16:02:19.847Z,1009.59
2023-06-19T16:03:19.945Z,1009.58
2023-06-19T16:04:20.227Z,1009.62
2023-06-19T16:05:19.965Z,1009.65
2023-06-19T16:06:19.995Z,1009.73
2023-06-19T16:07:20.041Z,1009.66
2023-06-19T16:08:20.055Z,1009.69
2023-06-19T16:09:20.115Z,1009.71
2023-06-19T16:10:20.143Z,1009.52
2023-06-19T16:11:20.173Z,1008.86
2023-06-19T16:12:20.229Z,1008.46
2023-06-19T16:13:20.259Z,1008.38
2023-06-19T16:14:20.292Z,1008.41
2023-06-19T16:15:20.333Z,1008.31
2023-06-19T16:16:20.420Z,1008.35
2023-06-19T16:17:20.731Z,1008.45
2023-06-19T16:18:20.457Z,1008.40
2023-06-19T16:19:21.595Z,1008.44
2023-06-19T16:21:20.590Z,1008.41
2023-06-19T16:22:20.605Z,1008.39
2023-06-19T16:23:20.664Z,1008.33
2023-06-19T16:24:20.716Z,1008.33
2023-06-19T16:25:20.732Z,1008.34
2023-06-19T16:26:20.772Z,1008.34
2023-06-19T16:27:20.828Z,1008.36
2023-06-19T16:28:20.850Z,1008.33
2023-06-19T16:29:21.196Z,1008.30
2023-06-19T16:30:20.928Z,1008.31
2023-06-19T16:31:21.067Z,1008.28
2023-06-19T16:32:21.101Z,1008.28
2023-06-19T16:33:21.131Z,1008.30
2023-06-19T16:34:21.088Z,1008.27
2023-06-19T16:35:21.140Z,1008.31
2023-06-19T16:36:21.469Z,1008.28
2023-06-19T16:37:21.251Z,1008.23
2023-06-19T16:38:21.265Z,1008.18
2023-06-19T16:39:21.325Z,1008.23
2023-06-19T16:40:21.565Z,1008.24
2023-06-19T16:41:21.400Z,1008.18
2023-06-19T16:42:21.444Z,1008.22
2023-06-19T16:43:21.769Z,1008.25
2023-06-19T16:44:21.495Z,1008.22
2023-06-19T16:45:21.546Z,1008.20
2023-06-19T16:46:21.667Z,1008.24
2023-06-19T16:47:21.644Z,1008.20
2023-06-19T16:48:21.655Z,1008.22
2023-06-19T16:49:21.895Z,1008.24
2023-06-19T16:50:22.172Z,1008.22
2023-06-19T16:51:21.781Z,1008.20
2023-06-19T16:52:21.808Z,1008.24
2023-06-19T16:53:21.917Z,1008.17
2023-06-19T16:54:21.895Z,1008.20
2023-06-19T16:55:21.935Z,1008.22
2023-06-19T16:56:21.980Z,1008.24
2023-06-19T16:57:22.322Z,1008.26
2023-06-19T16:58:22.054Z,1008.27
2023-06-19T16:59:22.104Z,1008.28
2023-06-19T17:00:22.357Z,1008.29
2023-06-19T17:01:22.207Z,1008.39
2023-06-19T17:02:22.309Z,1008.75
2023-06-19T17:03:22.386Z,1008.80
2023-06-19T17:04:22.301Z,1008.78
2023-06-19T17:05:22.354Z,1008.74
2023-06-19T17:06:23.951Z,1008.68
2023-06-19T17:07:22.447Z,1008.59
2023-06-19T17:08:22.504Z,1008.55
2023-06-19T17:09:22.522Z,1008.52
2023-06-19T17:10:23.297Z,1008.53
2023-06-19T17:12:22.671Z,1008.52
2023-06-19T17:13:22.656Z,1008.55
2023-06-19T17:14:22.704Z,1008.52
2023-06-19T17:15:22.740Z,1008.45
2023-06-19T17:16:22.819Z,1008.47
2023-06-19T17:17:23.176Z,1008.34
2023-06-19T17:18:22.876Z,1008.31
2023-06-19T17:19:22.909Z,1008.37
2023-06-19T17:20:23.134Z,1008.29
2023-06-19T17:23:23.066Z,1008.12
2023-06-19T17:24:23.144Z,1008.05
2023-06-19T17:25:23.177Z,1008.00
2023-06-19T17:26:23.189Z,1007.95
2023-06-19T17:28:23.262Z,1007.88
2023-06-19T17:29:23.313Z,1007.81
2023-06-19T17:30:24.033Z,1007.77
2023-06-19T17:31:23.390Z,1007.80
2023-06-19T17:32:23.454Z,1007.77
2023-06-19T17:33:23.479Z,1007.77
2023-06-19T17:34:23.512Z,1007.76
2023-06-19T17:35:24.503Z,1007.80
2023-06-19T17:36:23.890Z,1007.80
2023-06-19T17:37:23.644Z,1007.79
2023-06-19T17:38:23.676Z,1007.76
2023-06-19T17:39:23.768Z,1007.79
2023-06-19T17:40:24.180Z,1007.79
2023-06-19T17:41:23.900Z,1007.77
2023-06-19T17:42:24.079Z,1007.80
2023-06-19T17:44:23.924Z,1007.78
2023-06-19T17:45:23.958Z,1007.75
2023-06-19T17:46:24.018Z,1007.76
2023-06-19T17:47:24.076Z,1007.81
2023-06-19T17:48:24.085Z,1007.75
2023-06-19T17:49:24.412Z,1007.78
2023-06-19T17:50:24.476Z,1007.78
2023-06-19T17:51:24.191Z,1007.78
2023-06-19T17:52:24.245Z,1007.80
2023-06-19T17:54:24.321Z,1007.75
2023-06-19T17:55:24.352Z,1007.74
2023-06-19T17:56:24.759Z,1007.74
2023-06-19T17:57:24.464Z,1007.76
2023-06-19T17:58:24.471Z,1007.77
2023-06-19T17:59:24.513Z,1007.79
2023-06-19T18:00:24.897Z,1007.82
2023-06-19T18:01:24.676Z,1007.84
2023-06-19T18:02:24.789Z,1007.89
2023-06-19T18:03:25.115Z,1007.95
2023-06-19T18:04:24.725Z,1007.97
2023-06-19T18:05:24.746Z,1008.01
2023-06-19T18:06:24.797Z,1007.99
2023-06-19T18:07:24.828Z,1008.00
2023-06-19T18:09:24.920Z,1008.02
2023-06-19T18:10:25.474Z,1008.03
2023-06-19T18:11:25.004Z,1008.04
2023-06-19T18:12:25.024Z,1008.04
2023-06-19T18:13:25.082Z,1008.07
2023-06-19T18:14:25.136Z,1008.04
2023-06-19T18:15:25.146Z,1008.05
2023-06-19T18:16:25.265Z,1008.02
2023-06-19T18:17:25.852Z,1008.05
2023-06-19T18:19:25.311Z,1008.04
2023-06-19T18:20:25.605Z,1008.04
2023-06-19T18:21:25.375Z,1008.05
2023-06-19T18:22:25.417Z,1008.03
2023-06-19T18:23:25.448Z,1008.05
2023-06-19T18:24:25.827Z,1008.07
2023-06-19T18:25:25.531Z,1008.09
2023-06-19T18:26:25.569Z,1008.08
2023-06-19T18:27:25.660Z,1008.08
2023-06-19T18:28:25.652Z,1008.05
2023-06-19T18:29:25.757Z,1008.05
2023-06-19T18:30:25.863Z,1008.06
2023-06-19T18:31:26.067Z,1008.07
2023-06-19T18:32:25.848Z,1008.04
2023-06-19T18:33:25.846Z,1008.02
2023-06-19T18:34:25.889Z,1008.00
2023-06-19T18:35:25.921Z,1008.01
2023-06-19T18:36:25.965Z,1007.98
2023-06-19T18:37:25.997Z,1008.02
2023-06-19T18:38:26.331Z,1008.00
2023-06-19T18:40:26.318Z,1008.00
2023-06-19T18:41:26.176Z,1008.01
2023-06-19T18:42:26.196Z,1007.98
2023-06-19T18:43:26.235Z,1007.98
2023-06-19T18:44:26.622Z,1007.96
2023-06-19T18:45:26.651Z,1007.99
2023-06-19T18:46:26.507Z,1008.00
2023-06-19T18:47:26.393Z,1007.97
2023-06-19T18:48:26.421Z,1008.01
2023-06-19T18:49:28.305Z,1007.97
2023-06-19T18:50:26.949Z,1007.96
2023-06-19T18:51:26.536Z,1007.96
2023-06-19T18:52:28.186Z,1007.93
2023-06-19T18:53:26.610Z,1007.96
2023-06-19T18:54:26.651Z,1007.93
2023-06-19T18:55:26.688Z,1007.94
2023-06-19T18:56:26.736Z,1007.89
2023-06-19T18:57:26.773Z,1007.89
2023-06-19T18:58:26.807Z,1007.89
2023-06-19T18:59:27.144Z,1007.91
2023-06-19T19:02:27.204Z,1007.95
2023-06-19T19:03:27.151Z,1007.94
2023-06-19T19:04:27.031Z,1007.95
2023-06-19T19:05:27.377Z,1007.95
2023-06-19T19:06:27.107Z,1007.93
2023-06-19T19:07:27.149Z,1007.90
2023-06-19T19:08:27.215Z,1007.93
2023-06-19T19:09:27.240Z,1007.89
2023-06-19T19:10:27.652Z,1007.94
2023-06-19T19:11:27.675Z,1007.94
2023-06-19T19:12:27.343Z,1007.91
2023-06-19T19:13:27.381Z,1007.94
2023-06-19T19:14:27.423Z,1007.90
2023-06-19T19:15:27.464Z,1007.97
2023-06-19T19:16:27.532Z,1007.96
2023-06-19T19:17:27.856Z,1007.99
2023-06-19T19:18:27.593Z,1007.98
2023-06-19T19:19:27.608Z,1008.01
2023-06-19T19:20:27.816Z,1008.00
2023-06-19T19:21:27.708Z,1007.99
2023-06-19T19:24:27.899Z,1007.98
2023-06-19T19:25:28.272Z,1007.97
2023-06-19T19:26:27.891Z,1008.00
2023-06-19T19:27:27.919Z,1007.97
2023-06-19T19:28:27.960Z,1008.02
2023-06-19T19:29:28.010Z,1008.03
2023-06-19T19:30:28.535Z,1008.03
2023-06-19T19:31:28.065Z,1008.02
2023-06-19T19:32:28.836Z,1008.04
2023-06-19T19:33:28.264Z,1008.02
2023-06-19T19:34:28.212Z,1008.02
2023-06-19T19:35:28.226Z,1008.01
2023-06-19T19:36:28.250Z,1007.98
2023-06-19T19:37:28.293Z,1007.97
2023-06-19T19:38:28.582Z,1007.98
2023-06-19T19:40:28.440Z,1007.91
2023-06-19T19:41:28.442Z,1007.92
2023-06-19T19:42:28.588Z,1007.86
2023-06-19T19:43:28.520Z,1007.86
2023-06-19T19:44:28.626Z,1007.86
2023-06-19T19:46:28.973Z,1007.81
2023-06-19T19:47:28.673Z,1007.86
2023-06-19T19:48:28.737Z,1007.82
2023-06-19T19:49:28.741Z,1007.83
2023-06-19T19:50:28.793Z,1007.87
2023-06-19T19:51:28.818Z,1007.82
2023-06-19T19:52:29.113Z,1007.84
2023-06-19T19:53:29.199Z,1007.86
2023-06-19T19:55:28.965Z,1007.85
2023-06-19T19:56:29.388Z,1007.84
2023-06-19T19:57:29.042Z,1007.87
2023-06-19T19:58:29.076Z,1007.92
2023-06-19T19:59:29.117Z,1007.93
2023-06-19T20:00:29.457Z,1007.98
2023-06-19T20:01:29.321Z,1007.99
2023-06-19T20:02:29.312Z,1008.00
2023-06-19T20:03:29.377Z,1008.00
2023-06-19T20:04:29.307Z,1008.02
2023-06-19T20:05:29.339Z,1008.04
2023-06-19T20:06:29.430Z,1008.06
2023-06-19T20:07:29.711Z,1008.05
2023-06-19T20:08:29.457Z,1008.11
2023-06-19T20:09:29.479Z,1008.13
2023-06-19T20:10:29.548Z,1008.13
2023-06-19T20:11:31.109Z,1008.19
2023-06-19T20:12:29.595Z,1008.16
2023-06-19T20:13:29.635Z,1008.16
2023-06-19T20:14:29.995Z,1008.18
2023-06-19T20:15:29.709Z,1008.24
2023-06-19T20:16:29.820Z,1008.26
2023-06-19T20:17:29.857Z,1008.24
2023-06-19T20:18:30.010Z,1008.24
2023-06-19T20:19:29.968Z,1008.25
2023-06-19T20:20:29.911Z,1008.26
2023-06-19T20:21:30.246Z,1008.29
2023-06-19T20:22:29.996Z,1008.29
2023-06-19T20:23:30.013Z,1008.31
2023-06-19T20:24:30.103Z,1008.31
2023-06-19T20:25:30.088Z,1008.28
2023-06-19T20:26:32.669Z,1008.32
2023-06-19T20:27:30.157Z,1008.29
2023-06-19T20:28:30.505Z,1008.31
2023-06-19T20:29:30.254Z,1008.32
2023-06-19T20:30:30.272Z,1008.33
2023-06-19T20:31:30.304Z,1008.28
2023-06-19T20:32:30.536Z,1008.28
2023-06-19T20:33:30.375Z,1008.31
2023-06-19T20:34:30.436Z,1008.31
2023-06-19T20:37:30.842Z,1008.30
2023-06-19T20:39:30.655Z,1008.24
2023-06-19T20:40:30.654Z,1008.25
2023-06-19T20:41:30.707Z,1008.22
2023-06-19T20:42:30.758Z,1008.22
2023-06-19T20:43:30.752Z,1008.20
2023-06-19T20:44:31.150Z,1008.24
2023-06-19T20:45:30.851Z,1008.24
2023-06-19T20:46:30.918Z,1008.24
2023-06-19T20:47:31.101Z,1008.24
2023-06-19T20:48:30.966Z,1008.25
2023-06-19T20:49:30.991Z,1008.27
2023-06-19T20:50:31.116Z,1008.26
2023-06-19T20:51:31.350Z,1008.24
2023-06-19T20:52:31.084Z,1008.30
2023-06-19T20:53:31.189Z,1008.29
2023-06-19T20:54:31.164Z,1008.26
2023-06-19T20:55:31.327Z,1008.22
2023-06-19T20:56:31.333Z,1008.24
2023-06-19T20:57:31.268Z,1008.23
2023-06-19T20:58:31.601Z,1008.23
2023-06-19T20:59:31.462Z,1008.21
2023-06-19T21:00:31.441Z,1008.21
2023-06-19T21:01:31.543Z,1008.22
2023-06-19T21:02:31.546Z,1008.19
2023-06-19T21:03:31.791Z,1008.21
2023-06-19T21:04:31.530Z,1008.20
2023-06-19T21:05:31.863Z,1008.18
2023-06-19T21:06:31.609Z,1008.15
2023-06-19T21:07:31.646Z,1008.15
2023-06-19T21:08:31.682Z,1008.14
2023-06-19T21:09:31.715Z,1008.15
2023-06-19T21:10:31.768Z,1008.17
2023-06-19T21:11:31.820Z,1008.11
2023-06-19T21:12:32.127Z,1008.11
2023-06-19T21:13:31.884Z,1008.08
2023-06-19T21:14:31.934Z,1008.08
2023-06-19T21:15:31.935Z,1008.13
2023-06-19T21:16:31.997Z,1008.09
2023-06-19T21:17:32.239Z,1008.04
2023-06-19T21:18:32.071Z,1008.08
2023-06-19T21:19:32.380Z,1008.03
2023-06-19T21:20:32.457Z,1008.02
2023-06-19T21:21:32.165Z,1007.99
2023-06-19T21:22:32.497Z,1007.99
2023-06-19T21:23:32.228Z,1007.98
2023-06-19T21:24:32.312Z,1007.99
2023-06-19T21:25:32.306Z,1007.99
2023-06-19T21:26:32.614Z,1007.94
2023-06-19T21:27:32.405Z,1007.99
2023-06-19T21:28:32.415Z,1007.94
2023-06-19T21:29:32.460Z,1007.99
2023-06-19T21:30:32.490Z,1007.96
2023-06-19T21:31:32.539Z,1007.96
2023-06-19T21:32:32.584Z,1008.01
2023-06-19T21:33:32.911Z,1008.00
2023-06-19T21:34:32.627Z,1007.97
2023-06-19T21:35:32.697Z,1008.00
2023-06-19T21:36:32.709Z,1007.98
2023-06-19T21:37:32.766Z,1007.96
2023-06-19T21:38:32.788Z,1007.97
2023-06-19T21:39:32.874Z,1007.99
2023-06-19T21:41:32.891Z,1007.96
2023-06-19T21:42:32.937Z,1007.97
2023-06-19T21:43:32.981Z,1007.95
2023-06-19T21:44:33.006Z,1007.97
2023-06-19T21:45:33.047Z,1007.91
2023-06-19T21:46:33.106Z,1007.93
2023-06-19T21:47:33.446Z,1007.93
2023-06-19T21:48:33.150Z,1007.91
2023-06-19T21:49:33.180Z,1007.88
2023-06-19T21:50:33.216Z,1007.87
2023-06-19T21:51:33.254Z,1007.90
2023-06-19T21:52:33.291Z,1007.88
2023-06-19T21:53:33.625Z,1007.84
2023-06-19T21:54:33.389Z,1007.89
2023-06-19T21:55:33.406Z,1007.85
2023-06-19T21:56:33.446Z,1007.86
2023-06-19T21:57:39.901Z,1007.84